createdAt,value
2023-04-05T00:02:07.273Z,96.20
2023-04-05T00:04:34.152Z,96.40
2023-04-05T00:07:01.765Z,96.50
2023-04-05T00:09:28.504Z,96.50
2023-04-05T00:11:55.252Z,96.60
2023-04-05T00:14:21.981Z,96.90
2023-04-05T00:16:48.734Z,97.20
2023-04-05T00:19:15.440Z,97.40
2023-04-05T00:21:42.130Z,97.70
2023-04-05T00:24:08.923Z,97.80
2023-04-05T00:26:38.019Z,97.80
2023-04-05T00:29:04.780Z,97.70
2023-04-05T00:31:31.530Z,97.70
2023-04-05T00:33:58.486Z,97.60
2023-04-05T00:36:26.304Z,97.70
2023-04-05T00:38:53.014Z,97.70
2023-04-05T00:41:20.737Z,97.60
2023-04-05T00:43:48.428Z,97.50
2023-04-05T00:46:15.389Z,97.30
2023-04-05T00:48:42.100Z,97.40
2023-04-05T00:51:12.672Z,97.50
2023-04-05T00:53:43.381Z,97.60
2023-04-05T00:56:12.639Z,97.40
2023-04-05T00:58:39.551Z,97.50
2023-04-05T01:01:23.792Z,97.70
2023-04-05T01:03:53.814Z,97.80
2023-04-05T01:06:52.360Z,98.00
2023-04-05T01:09:58.624Z,98.30
2023-04-05T01:12:32.894Z,98.50
2023-04-05T01:15:01.264Z,98.60
2023-04-05T01:17:32.249Z,98.90
2023-04-05T01:20:01.484Z,99.20
2023-04-05T01:22:48.289Z,99.50
2023-04-05T01:25:37.746Z,99.90
2023-04-05T01:28:18.592Z,99.80
2023-04-05T01:30:54.115Z,99.90
2023-04-05T01:33:32.457Z,99.90
2023-04-05T01:36:02.017Z,99.90
2023-04-05T01:38:29.644Z,99.90
2023-04-05T01:40:56.817Z,99.90
2023-04-05T01:43:23.857Z,99.90
2023-04-05T01:45:50.537Z,99.90
2023-04-05T01:48:17.374Z,99.90
2023-04-05T01:50:44.497Z,99.90
2023-04-05T01:53:11.248Z,99.90
2023-04-05T01:55:38.187Z,99.90
2023-04-05T01:58:04.983Z,99.90
2023-04-05T02:00:31.841Z,99.90
2023-04-05T02:02:58.666Z,99.90
2023-04-05T02:05:25.570Z,99.90
2023-04-05T02:07:52.302Z,99.90
2023-04-05T02:10:19.581Z,99.90
2023-04-05T02:12:46.358Z,99.90
2023-04-05T02:15:14.245Z,99.90
2023-04-05T02:17:42.618Z,99.90
2023-04-05T02:20:10.640Z,99.90
2023-04-05T02:22:38.833Z,99.90
2023-04-05T02:25:08.377Z,99.90
2023-04-05T02:27:35.386Z,99.90
2023-04-05T02:30:04.145Z,99.90
2023-04-05T02:32:33.141Z,99.90
2023-04-05T02:35:02.928Z,99.90
2023-04-05T02:37:29.612Z,99.90
2023-04-05T02:39:56.399Z,99.90
2023-04-05T02:42:23.088Z,99.90
2023-04-05T02:44:51.263Z,99.90
2023-04-05T02:47:18.011Z,99.90
2023-04-05T02:49:44.769Z,99.90
2023-04-05T02:52:11.475Z,99.90
2023-04-05T02:54:38.165Z,99.90
2023-04-05T02:57:04.995Z,99.90
2023-04-05T02:59:32.292Z,99.90
2023-04-05T03:01:59.032Z,99.80
2023-04-05T03:04:26.321Z,99.90
2023-04-05T03:06:53.207Z,99.90
2023-04-05T03:09:19.947Z,99.90
2023-04-05T03:11:47.189Z,99.90
2023-04-05T03:14:13.872Z,99.90
2023-04-05T03:16:40.662Z,99.90
2023-04-05T03:19:07.587Z,99.90
2023-04-05T03:21:34.395Z,99.90
2023-04-05T03:24:02.417Z,99.90
2023-04-05T03:26:29.171Z,99.90
2023-04-05T03:28:55.886Z,99.90
2023-04-05T03:31:22.654Z,99.90
2023-04-05T03:33:49.395Z,99.90
2023-04-05T03:36:16.753Z,99.90
2023-04-05T03:38:45.027Z,99.90
2023-04-05T03:41:11.725Z,99.90
2023-04-05T03:43:38.498Z,99.90
2023-04-05T03:46:05.922Z,99.90
2023-04-05T03:48:34.955Z,99.90
2023-04-05T03:51:02.039Z,99.90
2023-04-05T03:53:28.735Z,99.90
2023-04-05T03:55:55.657Z,99.90
2023-04-05T03:58:22.451Z,99.90
2023-04-05T04:00:49.111Z,99.90
2023-04-05T04:03:15.883Z,99.90
2023-04-05T04:05:44.006Z,99.90
2023-04-05T04:08:12.540Z,99.90
2023-04-05T04:10:40.409Z,99.90
2023-04-05T04:13:07.395Z,99.90
2023-04-05T04:15:35.313Z,99.90
2023-04-05T04:18:02.139Z,99.90
2023-04-05T04:20:30.396Z,99.90
2023-04-05T04:22:58.543Z,99.90
2023-04-05T04:25:25.269Z,99.90
2023-04-05T04:27:52.353Z,99.90
2023-04-05T04:30:19.487Z,99.90
2023-04-05T04:32:46.213Z,99.90
2023-04-05T04:35:15.042Z,99.90
2023-04-05T04:37:42.330Z,99.90
2023-04-05T04:40:11.071Z,99.90
2023-04-05T04:42:39.041Z,99.90
2023-04-05T04:45:06.296Z,99.90
2023-04-05T04:47:34.561Z,99.90
2023-04-05T04:50:12.819Z,99.90
2023-04-05T04:52:40.951Z,99.90
2023-04-05T04:55:09.663Z,99.90
2023-04-05T04:57:37.352Z,99.90
2023-04-05T05:00:04.471Z,99.90
2023-04-05T05:02:33.895Z,99.90
2023-04-05T05:05:01.884Z,99.90
2023-04-05T05:07:33.047Z,99.90
2023-04-05T05:10:07.531Z,99.90
2023-04-05T05:12:39.035Z,99.90
2023-04-05T05:15:07.875Z,99.90
2023-04-05T05:17:35.821Z,99.90
2023-04-05T05:20:04.489Z,99.90
2023-04-05T05:22:31.657Z,99.90
2023-04-05T05:24:59.448Z,99.90
2023-04-05T05:27:26.187Z,99.90
2023-04-05T05:29:54.973Z,99.90
2023-04-05T05:32:25.356Z,99.90
2023-04-05T05:35:02.996Z,99.90
2023-04-05T05:37:33.469Z,99.90
2023-04-05T05:40:06.767Z,99.90
2023-04-05T05:42:36.345Z,99.90
2023-04-05T05:45:05.202Z,99.90
2023-04-05T05:47:40.913Z,99.90
2023-04-05T05:50:13.073Z,99.90
2023-04-05T05:52:43.383Z,99.90
2023-04-05T05:55:11.650Z,99.90
2023-04-05T05:57:39.999Z,99.90
2023-04-05T06:00:09.438Z,99.90
2023-04-05T06:02:36.909Z,99.90
2023-04-05T06:05:06.338Z,99.90
2023-04-05T06:07:36.503Z,99.90
2023-04-05T06:10:08.416Z,99.90
2023-04-05T06:12:40.203Z,99.90
2023-04-05T06:15:10.032Z,99.90
2023-04-05T06:17:38.976Z,99.90
2023-04-05T06:20:10.720Z,99.90
2023-04-05T06:22:48.965Z,99.90
2023-04-05T06:25:18.564Z,99.90
2023-04-05T06:27:45.577Z,99.90
2023-04-05T06:30:14.146Z,99.90
2023-04-05T06:32:44.176Z,99.90
2023-04-05T06:35:12.585Z,99.90
2023-04-05T06:37:39.498Z,99.90
2023-04-05T06:40:07.110Z,99.90
2023-04-05T06:42:33.992Z,99.90
2023-04-05T06:45:01.178Z,99.90
2023-04-05T06:47:27.942Z,99.90
2023-04-05T06:49:55.080Z,99.90
2023-04-05T06:52:22.104Z,99.90
2023-04-05T06:54:48.900Z,99.90
2023-04-05T06:57:15.741Z,99.90
2023-04-05T06:59:43.845Z,99.90
2023-04-05T07:02:12.547Z,99.90
2023-04-05T07:04:40.895Z,99.90
2023-04-05T07:07:09.808Z,99.90
2023-04-05T07:09:40.040Z,99.90
2023-04-05T07:12:09.144Z,99.90
2023-04-05T07:14:38.621Z,99.90
2023-04-05T07:17:09.440Z,99.90
2023-04-05T07:19:38.762Z,99.90
2023-04-05T07:22:05.513Z,99.90
2023-04-05T07:24:32.557Z,99.90
2023-04-05T07:26:59.860Z,99.90
2023-04-05T07:29:27.728Z,99.90
2023-04-05T07:31:54.592Z,99.90
2023-04-05T07:34:21.938Z,99.90
2023-04-05T07:36:49.183Z,99.90
2023-04-05T07:39:18.624Z,99.90
2023-04-05T07:41:45.610Z,99.90
2023-04-05T07:44:12.471Z,99.90
2023-04-05T07:46:39.588Z,99.90
2023-04-05T07:49:06.475Z,99.90
2023-04-05T07:51:33.354Z,99.90
2023-04-05T07:54:01.876Z,99.90
2023-04-05T07:56:31.618Z,99.90
2023-04-05T07:59:00.009Z,99.90
2023-04-05T08:01:26.800Z,99.90
2023-04-05T08:03:57.064Z,99.90
2023-04-05T08:06:25.281Z,99.90
2023-04-05T08:08:52.284Z,99.90
2023-04-05T08:11:19.259Z,99.90
2023-04-05T08:13:46.461Z,99.90
2023-04-05T08:16:14.396Z,99.90
2023-04-05T08:18:44.425Z,99.90
2023-04-05T08:21:14.182Z,99.90
2023-04-05T08:23:41.353Z,99.90
2023-04-05T08:26:09.736Z,99.90
2023-04-05T08:28:36.795Z,99.90
2023-04-05T08:31:05.151Z,99.90
2023-04-05T08:33:35.498Z,99.90
2023-04-05T08:36:08.081Z,99.90
2023-04-05T08:38:35.321Z,99.90
2023-04-05T08:41:17.744Z,99.90
2023-04-05T08:43:55.541Z,99.90
2023-04-05T08:46:23.083Z,99.90
2023-04-05T08:48:50.606Z,99.90
2023-04-05T08:51:26.246Z,99.90
2023-04-05T08:53:54.276Z,99.90
2023-04-05T08:56:26.858Z,99.90
2023-04-05T08:59:13.029Z,99.90
2023-04-05T09:01:46.518Z,99.90
2023-04-05T09:04:19.010Z,99.90
2023-04-05T09:06:47.097Z,99.90
2023-04-05T09:09:15.208Z,99.90
2023-04-05T09:11:44.867Z,99.90
2023-04-05T09:14:12.299Z,99.90
2023-04-05T09:16:41.764Z,99.90
2023-04-05T09:19:10.961Z,99.90
2023-04-05T09:22:04.119Z,99.90
2023-04-05T09:24:44.302Z,99.90
2023-04-05T09:27:16.591Z,99.90
2023-04-05T09:29:48.753Z,99.90
2023-04-05T09:32:18.532Z,99.90
2023-04-05T09:34:48.054Z,99.90
2023-04-05T09:37:20.536Z,99.90
2023-04-05T09:39:49.127Z,99.90
2023-04-05T09:42:17.796Z,99.90
2023-04-05T09:44:56.011Z,99.90
2023-04-05T09:47:28.065Z,99.90
2023-04-05T09:49:59.119Z,99.90
2023-04-05T09:52:32.454Z,99.90
2023-04-05T09:55:04.030Z,99.90
2023-04-05T09:57:36.882Z,99.90
2023-04-05T10:00:07.164Z,99.90
2023-04-05T10:02:41.767Z,99.90
2023-04-05T10:05:11.360Z,99.90
2023-04-05T10:07:40.050Z,99.90
2023-04-05T10:10:12.884Z,99.90
2023-04-05T10:12:41.444Z,99.30
2023-04-05T10:15:09.099Z,99.90
2023-04-05T10:17:45.825Z,99.60
2023-04-05T10:20:17.186Z,99.10
2023-04-05T10:23:00.600Z,98.70
2023-04-05T10:25:53.396Z,98.50
2023-04-05T10:28:36.364Z,98.30
2023-04-05T10:31:24.200Z,97.90
2023-04-05T10:34:05.363Z,98.10
2023-04-05T10:37:01.241Z,98.20
2023-04-05T10:39:36.345Z,97.70
2023-04-05T10:42:10.048Z,97.70
2023-04-05T10:44:37.412Z,97.20
2023-04-05T10:47:07.384Z,96.40
2023-04-05T10:49:40.051Z,95.60
2023-04-05T10:52:07.237Z,95.60
2023-04-05T10:54:35.753Z,95.20
2023-04-05T10:57:09.701Z,94.90
2023-04-05T10:59:44.458Z,95.20
2023-04-05T11:02:13.958Z,94.40
2023-04-05T11:04:42.771Z,94.90
2023-04-05T11:07:55.494Z,94.50
2023-04-05T11:10:27.496Z,94.90
2023-04-05T11:13:00.983Z,94.40
2023-04-05T11:15:32.142Z,95.00
2023-04-05T11:18:18.120Z,95.30
2023-04-05T11:20:54.400Z,95.60
2023-04-05T11:23:32.707Z,95.60
2023-04-05T11:26:19.132Z,95.30
2023-04-05T11:28:58.870Z,95.00
2023-04-05T11:31:49.750Z,94.40
2023-04-05T11:34:25.467Z,95.40
2023-04-05T11:36:58.407Z,94.70
2023-04-05T11:39:26.577Z,95.30
2023-04-05T11:42:03.940Z,94.70
2023-04-05T11:44:47.840Z,95.10
2023-04-05T11:47:20.193Z,94.50
2023-04-05T11:49:50.615Z,94.70
2023-04-05T11:52:20.458Z,95.20
2023-04-05T11:54:48.058Z,95.70
2023-04-05T11:57:24.901Z,95.90
2023-04-05T11:59:54.499Z,95.50
2023-04-05T12:02:26.232Z,95.60
2023-04-05T12:05:01.852Z,95.60
2023-04-05T12:07:32.749Z,95.30
2023-04-05T12:10:03.816Z,95.20
2023-04-05T12:12:49.063Z,94.80
2023-04-05T12:15:24.643Z,94.10
2023-04-05T12:17:58.301Z,94.20
2023-04-05T12:20:26.261Z,94.70
2023-04-05T12:25:08.456Z,95.60
2023-04-05T12:26:07.286Z,95.00
2023-04-05T12:28:50.706Z,94.60
2023-04-05T12:31:17.765Z,94.50
2023-04-05T12:33:44.820Z,94.40
2023-04-05T12:36:14.781Z,94.20
2023-04-05T12:38:43.474Z,94.00
2023-04-05T12:41:10.532Z,93.70
2023-04-05T12:43:42.461Z,95.10
2023-04-05T12:46:17.501Z,95.40
2023-04-05T12:48:49.703Z,94.90
2023-04-05T12:51:17.286Z,95.70
2023-04-05T12:53:47.765Z,95.20
2023-04-05T12:56:15.770Z,95.10
2023-04-05T12:58:43.189Z,94.30
2023-04-05T13:01:12.268Z,94.40
2023-04-05T13:03:39.225Z,94.10
2023-04-05T13:06:07.467Z,92.60
2023-04-05T13:08:34.266Z,91.10
2023-04-05T13:11:01.725Z,90.90
2023-04-05T13:13:28.829Z,90.70
2023-04-05T13:15:55.620Z,91.30
2023-04-05T13:18:22.469Z,90.90
2023-04-05T13:20:49.427Z,91.30
2023-04-05T13:23:16.733Z,90.40
2023-04-05T13:25:44.741Z,90.30
2023-04-05T13:28:11.642Z,90.80
2023-04-05T13:30:38.504Z,90.20
2023-04-05T13:33:05.626Z,88.50
2023-04-05T13:35:32.742Z,88.00
2023-04-05T13:38:02.468Z,88.50
2023-04-05T13:40:32.762Z,89.20
2023-04-05T13:42:59.697Z,88.70
2023-04-05T13:45:29.754Z,89.50
2023-04-05T13:47:58.497Z,90.20
2023-04-05T13:50:25.605Z,90.30
2023-04-05T13:52:53.994Z,90.10
2023-04-05T13:55:23.473Z,88.40
2023-04-05T13:57:51.445Z,87.30
2023-04-05T14:00:19.125Z,86.40
2023-04-05T14:02:48.197Z,84.40
2023-04-05T14:05:17.263Z,80.60
2023-04-05T14:07:47.895Z,76.80
2023-04-05T14:10:21.833Z,76.50
2023-04-05T14:12:50.026Z,75.30
2023-04-05T14:15:20.483Z,75.20
2023-04-05T14:17:48.878Z,74.70
2023-04-05T14:20:18.621Z,73.60
2023-04-05T14:22:46.261Z,71.80
2023-04-05T14:25:16.209Z,70.30
2023-04-05T14:27:44.760Z,69.90
2023-04-05T14:30:13.473Z,70.00
2023-04-05T14:32:40.522Z,70.20
2023-04-05T14:35:09.243Z,69.30
2023-04-05T14:37:39.089Z,68.70
2023-04-05T14:40:07.605Z,67.70
2023-04-05T14:42:47.694Z,68.00
2023-04-05T14:45:15.787Z,66.80
2023-04-05T14:47:43.366Z,67.50
2023-04-05T14:50:12.045Z,66.50
2023-04-05T14:52:40.017Z,67.10
2023-04-05T14:55:08.705Z,65.40
2023-04-05T14:57:36.275Z,64.50
2023-04-05T15:00:05.175Z,63.50
2023-04-05T15:02:32.108Z,62.00
2023-04-05T15:04:59.061Z,63.80
2023-04-05T15:07:28.860Z,63.60
2023-04-05T15:09:55.968Z,64.50
2023-04-05T15:12:23.033Z,65.50
2023-04-05T15:14:50.387Z,66.60
2023-04-05T15:17:17.504Z,66.60
2023-04-05T15:19:44.342Z,67.00
2023-04-05T15:22:11.247Z,67.20
2023-04-05T15:24:38.835Z,67.90
2023-04-05T15:27:09.293Z,68.40
2023-04-05T15:29:36.227Z,68.50
2023-04-05T15:32:03.575Z,68.30
2023-04-05T15:34:31.268Z,69.10
2023-04-05T15:36:58.133Z,70.30
2023-04-05T15:39:25.138Z,73.70
2023-04-05T15:41:52.117Z,74.10
2023-04-05T15:44:19.253Z,74.80
2023-04-05T15:46:46.141Z,77.20
2023-04-05T15:49:16.992Z,78.80
2023-04-05T15:51:45.730Z,78.40
2023-04-05T15:54:12.539Z,78.40
2023-04-05T15:56:39.375Z,76.90
2023-04-05T15:59:06.349Z,76.90
2023-04-05T16:01:35.222Z,75.60
2023-04-05T16:04:03.519Z,76.20
2023-04-05T16:06:32.488Z,75.60
2023-04-05T16:08:59.829Z,74.40
2023-04-05T16:11:27.675Z,74.00
2023-04-05T16:13:54.517Z,74.00
2023-04-05T16:16:32.540Z,72.00
2023-04-05T16:19:06.436Z,72.00
2023-04-05T16:21:34.500Z,72.60
2023-04-05T16:24:02.529Z,73.00
2023-04-05T16:26:29.902Z,72.80
2023-04-05T16:28:56.823Z,73.20
2023-04-05T16:31:23.922Z,72.60
2023-04-05T16:33:50.757Z,72.80
2023-04-05T16:36:17.844Z,73.00
2023-04-05T16:38:46.796Z,73.00
2023-04-05T16:41:14.835Z,72.80
2023-04-05T16:43:41.597Z,72.90
2023-04-05T16:46:08.425Z,73.00
2023-04-05T16:48:35.241Z,71.80
2023-04-05T16:51:02.056Z,71.60
2023-04-05T16:53:29.614Z,72.00
2023-04-05T16:55:56.758Z,71.70
2023-04-05T16:58:23.656Z,71.80
2023-04-05T17:00:50.636Z,71.90
2023-04-05T17:03:17.586Z,72.10
2023-04-05T17:05:44.616Z,72.10
2023-04-05T17:08:12.961Z,72.70
2023-04-05T17:10:39.749Z,72.80
2023-04-05T17:13:07.961Z,73.10
2023-04-05T17:15:34.826Z,73.30
2023-04-05T17:18:03.174Z,73.00
2023-04-05T17:20:31.131Z,73.30
2023-04-05T17:22:59.375Z,73.90
2023-04-05T17:25:28.820Z,74.10
2023-04-05T17:27:56.186Z,74.60
2023-04-05T17:30:25.609Z,75.30
2023-04-05T17:32:52.579Z,75.60
2023-04-05T17:35:21.674Z,75.70
2023-04-05T17:37:49.778Z,75.90
2023-04-05T17:40:17.028Z,76.60
2023-04-05T17:42:45.130Z,77.10
2023-04-05T17:45:12.047Z,77.50
2023-04-05T17:47:43.031Z,77.90
2023-04-05T17:50:11.268Z,78.10
2023-04-05T17:52:41.169Z,78.60
2023-04-05T17:55:08.870Z,78.90
2023-04-05T17:57:36.919Z,79.30
2023-04-05T18:00:08.658Z,79.60
2023-04-05T18:02:35.618Z,80.20
2023-04-05T18:05:07.075Z,80.60
2023-04-05T18:07:41.244Z,81.00
2023-04-05T18:10:08.825Z,81.40
2023-04-05T18:12:36.673Z,81.90
2023-04-05T18:15:03.577Z,82.60
2023-04-05T18:17:30.985Z,82.90
2023-04-05T18:19:58.992Z,83.50
2023-04-05T18:22:29.803Z,84.00
2023-04-05T18:24:56.605Z,84.60
2023-04-05T18:27:23.345Z,84.70
2023-04-05T18:29:50.166Z,84.90
2023-04-05T18:32:17.232Z,85.50
2023-04-05T18:34:44.147Z,85.90
2023-04-05T18:37:11.149Z,86.10
2023-04-05T18:39:39.217Z,86.60
2023-04-05T18:42:07.779Z,87.10
2023-04-05T18:44:34.832Z,87.10
2023-04-05T18:47:01.609Z,87.70
2023-04-05T18:49:28.325Z,87.90
2023-04-05T18:51:55.114Z,88.10
2023-04-05T18:54:21.897Z,89.00
2023-04-05T18:56:48.662Z,88.60
2023-04-05T18:59:15.525Z,88.90
2023-04-05T19:01:42.409Z,89.50
2023-04-05T19:04:09.621Z,89.90
2023-04-05T19:06:36.659Z,90.00
2023-04-05T19:09:03.597Z,90.10
2023-04-05T19:11:30.523Z,90.10
2023-04-05T19:13:58.752Z,90.10
2023-04-05T19:16:25.562Z,90.20
2023-04-05T19:18:52.635Z,90.30
2023-04-05T19:21:19.422Z,90.30
2023-04-05T19:23:46.226Z,90.50
2023-04-05T19:26:14.412Z,90.60
2023-04-05T19:28:41.257Z,90.80
2023-04-05T19:31:10.045Z,90.80
2023-04-05T19:33:37.073Z,90.90
2023-04-05T19:36:05.414Z,91.10
2023-04-05T19:38:37.548Z,91.20
2023-04-05T19:41:06.695Z,91.30
2023-04-05T19:43:43.856Z,91.40
2023-04-05T19:46:16.618Z,91.50
2023-04-05T19:48:46.476Z,91.70
2023-04-05T19:51:15.244Z,91.90
2023-04-05T19:53:50.448Z,91.90
2023-04-05T19:56:23.387Z,92.20
2023-04-05T19:58:56.320Z,92.20
2023-04-05T20:01:33.050Z,92.10
2023-04-05T20:04:01.035Z,92.20
2023-04-05T20:06:33.159Z,92.10
2023-04-05T20:09:04.502Z,92.30
2023-04-05T20:11:31.487Z,92.50
2023-04-05T20:13:58.791Z,92.70
2023-04-05T20:16:34.075Z,92.80
2023-04-05T20:19:06.278Z,93.10
2023-04-05T20:21:34.130Z,93.10
2023-04-05T20:24:01.786Z,93.30
2023-04-05T20:26:32.642Z,93.40
2023-04-05T20:29:02.391Z,93.60
2023-04-05T20:31:33.021Z,93.70
2023-04-05T20:34:19.659Z,93.70
2023-04-05T20:36:51.818Z,93.80
2023-04-05T20:39:19.139Z,93.90
2023-04-05T20:41:46.494Z,94.10
2023-04-05T20:44:13.372Z,94.20
2023-04-05T20:46:40.225Z,94.30
2023-04-05T20:49:07.500Z,94.40
2023-04-05T20:51:34.617Z,94.40
2023-04-05T20:54:01.351Z,94.60
2023-04-05T20:56:28.218Z,94.60
2023-04-05T20:58:55.054Z,94.70
2023-04-05T21:01:21.910Z,94.90
2023-04-05T21:03:49.095Z,95.00
2023-04-05T21:06:15.878Z,95.10
2023-04-05T21:08:42.594Z,95.30
2023-04-05T21:11:10.612Z,95.40
2023-04-05T21:13:37.991Z,95.60
2023-04-05T21:16:06.645Z,95.90
2023-04-05T21:18:34.781Z,96.00
2023-04-05T21:21:03.428Z,96.40
2023-04-05T21:23:33.472Z,96.70
2023-04-05T21:26:02.318Z,97.00
2023-04-05T21:28:28.991Z,97.00
2023-04-05T21:30:55.833Z,97.10
2023-04-05T21:33:22.867Z,97.10
2023-04-05T21:35:50.047Z,97.20
2023-04-05T21:38:17.055Z,97.20
2023-04-05T21:40:43.829Z,97.40
2023-04-05T21:43:11.573Z,97.40
2023-04-05T21:45:38.418Z,97.50
2023-04-05T21:48:05.452Z,97.70
2023-04-05T21:50:32.323Z,97.90
2023-04-05T21:52:59.293Z,98.20
2023-04-05T21:55:26.210Z,98.30
2023-04-05T21:57:52.928Z,98.40
2023-04-05T22:00:20.040Z,98.70
2023-04-05T22:02:46.913Z,98.90
2023-04-05T22:05:25.629Z,99.10
2023-04-05T22:08:01.533Z,99.40
2023-04-05T22:10:28.729Z,99.70
2023-04-05T22:12:55.586Z,99.90
2023-04-05T22:15:22.348Z,99.90
2023-04-05T22:17:49.130Z,99.90
2023-04-05T22:20:16.145Z,99.90
2023-04-05T22:22:43.165Z,99.90
2023-04-05T22:25:11.149Z,99.90
2023-04-05T22:27:39.025Z,99.90
2023-04-05T22:30:06.497Z,99.90
2023-04-05T22:32:33.371Z,99.90
2023-04-05T22:35:00.215Z,99.90
2023-04-05T22:37:27.370Z,99.90
2023-04-05T22:39:54.220Z,99.90
2023-04-05T22:42:20.991Z,99.90
2023-04-05T22:44:47.727Z,99.90
2023-04-05T22:47:14.492Z,99.90
2023-04-05T22:49:41.355Z,99.90
2023-04-05T22:52:08.080Z,99.90
2023-04-05T22:54:34.835Z,99.90
2023-04-05T22:57:01.616Z,99.90
2023-04-05T22:59:28.422Z,99.90
2023-04-05T23:01:55.385Z,99.90
2023-04-05T23:04:22.261Z,99.90
2023-04-05T23:06:49.046Z,99.90
2023-04-05T23:09:15.831Z,99.90
2023-04-05T23:11:43.752Z,99.90
2023-04-05T23:14:12.057Z,99.90
2023-04-05T23:16:39.638Z,99.90
2023-04-05T23:19:08.063Z,99.90
2023-04-05T23:21:35.380Z,99.90
2023-04-05T23:24:03.500Z,99.90
2023-04-05T23:26:30.265Z,99.90
2023-04-05T23:29:00.733Z,99.90
2023-04-05T23:31:30.949Z,99.90
2023-04-05T23:33:59.104Z,99.90
2023-04-05T23:36:27.443Z,99.90
2023-04-05T23:38:58.591Z,99.90
2023-04-05T23:41:25.761Z,99.90
2023-04-05T23:43:52.957Z,99.90
2023-04-05T23:46:19.806Z,99.90
2023-04-05T23:48:46.666Z,99.90
2023-04-05T23:51:13.621Z,99.90
2023-04-05T23:53:40.408Z,99.90
2023-04-05T23:56:07.564Z,99.90
2023-04-05T23:58:34.330Z,99.90
